sensor_id;sensor_type;location;lat;lon;timestamp;temperature;humidity
11617;DHT22;5864;52.998;9.068;2022-07-23T00:00:58;17.00;99.90
11617;DHT22;5864;52.998;9.068;2022-07-23T00:03:26;17.00;99.90
11617;DHT22;5864;52.998;9.068;2022-07-23T00:05:53;17.00;99.90
11617;DHT22;5864;52.998;9.068;2022-07-23T00:08:20;16.90;99.90
11617;DHT22;5864;52.998;9.068;2022-07-23T00:10:48;16.90;99.90
11617;DHT22;5864;52.998;9.068;2022-07-23T00:13:15;16.90;99.90
11617;DHT22;5864;52.998;9.068;2022-07-23T00:15:43;16.80;99.90
11617;DHT22;5864;52.998;9.068;2022-07-23T00:18:12;16.80;99.90
11617;DHT22;5864;52.998;9.068;2022-07-23T00:20:39;16.80;99.90
11617;DHT22;5864;52.998;9.068;2022-07-23T00:23:06;16.80;99.90
11617;DHT22;5864;52.998;9.068;2022-07-23T00:25:34;16.70;99.90
11617;DHT22;5864;52.998;9.068;2022-07-23T00:28:02;16.70;99.90
11617;DHT22;5864;52.998;9.068;2022-07-23T00:30:31;16.70;99.90
11617;DHT22;5864;52.998;9.068;2022-07-23T00:33:00;16.60;99.90
11617;DHT22;5864;52.998;9.068;2022-07-23T00:35:33;16.60;99.90
11617;DHT22;5864;52.998;9.068;2022-07-23T00:38:02;16.60;99.90
11617;DHT22;5864;52.998;9.068;2022-07-23T00:40:31;16.60;99.90
11617;DHT22;5864;52.998;9.068;2022-07-23T00:42:58;16.50;99.90
11617;DHT22;5864;52.998;9.068;2022-07-23T00:45:26;16.50;99.90
11617;DHT22;5864;52.998;9.068;2022-07-23T00:47:53;16.50;99.90
11617;DHT22;5864;52.998;9.068;2022-07-23T00:50:21;16.40;99.90
11617;DHT22;5864;52.998;9.068;2022-07-23T00:52:50;16.40;99.90
11617;DHT22;5864;52.998;9.068;2022-07-23T00:55:19;16.40;99.90
11617;DHT22;5864;52.998;9.068;2022-07-23T00:57:47;16.40;99.90
11617;DHT22;5864;52.998;9.068;2022-07-23T01:00:15;16.40;99.90
11617;DHT22;5864;52.998;9.068;2022-07-23T01:02:43;16.30;99.90
11617;DHT22;5864;52.998;9.068;2022-07-23T01:05:10;16.30;99.90
11617;DHT22;5864;52.998;9.068;2022-07-23T01:07:38;16.30;99.90
11617;DHT22;5864;52.998;9.068;2022-07-23T01:10:08;16.20;99.90
11617;DHT22;5864;52.998;9.068;2022-07-23T01:12:50;16.10;99.90
11617;DHT22;5864;52.998;9.068;2022-07-23T01:15:17;16.10;99.90
11617;DHT22;5864;52.998;9.068;2022-07-23T01:17:45;16.10;99.90
11617;DHT22;5864;52.998;9.068;2022-07-23T01:20:12;16.10;99.90
11617;DHT22;5864;52.998;9.068;2022-07-23T01:22:41;16.00;99.90
11617;DHT22;5864;52.998;9.068;2022-07-23T01:25:09;16.10;99.90
11617;DHT22;5864;52.998;9.068;2022-07-23T01:27:36;16.00;99.90
11617;DHT22;5864;52.998;9.068;2022-07-23T01:30:05;16.00;99.90
11617;DHT22;5864;52.998;9.068;2022-07-23T01:32:33;15.90;99.90
11617;DHT22;5864;52.998;9.068;2022-07-23T01:35:00;15.90;99.90
11617;DHT22;5864;52.998;9.068;2022-07-23T01:37:28;15.90;99.90
11617;DHT22;5864;52.998;9.068;2022-07-23T01:39:57;15.90;99.90
11617;DHT22;5864;52.998;9.068;2022-07-23T01:42:24;15.90;99.90
11617;DHT22;5864;52.998;9.068;2022-07-23T01:44:52;15.90;99.90
11617;DHT22;5864;52.998;9.068;2022-07-23T01:47:20;15.90;99.90
11617;DHT22;5864;52.998;9.068;2022-07-23T01:49:47;15.90;99.90
11617;DHT22;5864;52.998;9.068;2022-07-23T01:52:15;15.90;99.90
11617;DHT22;5864;52.998;9.068;2022-07-23T01:54:42;15.90;99.90
11617;DHT22;5864;52.998;9.068;2022-07-23T01:57:11;15.90;99.90
11617;DHT22;5864;52.998;9.068;2022-07-23T01:59:38;15.90;99.90
11617;DHT22;5864;52.998;9.068;2022-07-23T02:02:06;15.90;99.90
11617;DHT22;5864;52.998;9.068;2022-07-23T02:04:33;15.90;99.90
11617;DHT22;5864;52.998;9.068;2022-07-23T02:07:03;15.90;99.90
11617;DHT22;5864;52.998;9.068;2022-07-23T02:09:30;15.90;99.90
11617;DHT22;5864;52.998;9.068;2022-07-23T02:11:58;16.00;99.90
11617;DHT22;5864;52.998;9.068;2022-07-23T02:14:27;16.00;99.90
11617;DHT22;5864;52.998;9.068;2022-07-23T02:16:54;15.90;99.90
11617;DHT22;5864;52.998;9.068;2022-07-23T02:19:22;16.00;99.90
11617;DHT22;5864;52.998;9.068;2022-07-23T02:21:49;16.00;99.90
11617;DHT22;5864;52.998;9.068;2022-07-23T02:24:17;16.00;99.90
11617;DHT22;5864;52.998;9.068;2022-07-23T02:26:44;16.00;99.90
11617;DHT22;5864;52.998;9.068;2022-07-23T02:29:12;16.00;99.90
11617;DHT22;5864;52.998;9.068;2022-07-23T02:31:41;16.00;99.90
11617;DHT22;5864;52.998;9.068;2022-07-23T02:34:08;16.10;99.90
11617;DHT22;5864;52.998;9.068;2022-07-23T02:36:37;16.10;99.90
11617;DHT22;5864;52.998;9.068;2022-07-23T02:39:05;16.00;99.90
11617;DHT22;5864;52.998;9.068;2022-07-23T02:41:33;16.00;99.90
11617;DHT22;5864;52.998;9.068;2022-07-23T02:44:00;16.10;99.90
11617;DHT22;5864;52.998;9.068;2022-07-23T02:46:28;16.10;99.90
11617;DHT22;5864;52.998;9.068;2022-07-23T02:48:57;16.20;99.90
11617;DHT22;5864;52.998;9.068;2022-07-23T02:51:24;16.20;99.90
11617;DHT22;5864;52.998;9.068;2022-07-23T02:53:52;16.10;99.90
11617;DHT22;5864;52.998;9.068;2022-07-23T02:56:19;16.10;99.90
11617;DHT22;5864;52.998;9.068;2022-07-23T02:58:47;16.10;99.90
11617;DHT22;5864;52.998;9.068;2022-07-23T03:01:14;16.10;99.90
11617;DHT22;5864;52.998;9.068;2022-07-23T03:03:42;16.10;99.90
11617;DHT22;5864;52.998;9.068;2022-07-23T03:06:10;16.10;99.90
11617;DHT22;5864;52.998;9.068;2022-07-23T03:08:38;16.10;99.90
11617;DHT22;5864;52.998;9.068;2022-07-23T03:11:05;16.10;99.90
11617;DHT22;5864;52.998;9.068;2022-07-23T03:13:36;16.10;99.90
11617;DHT22;5864;52.998;9.068;2022-07-23T03:16:04;16.00;99.90
11617;DHT22;5864;52.998;9.068;2022-07-23T03:18:32;16.00;99.90
11617;DHT22;5864;52.998;9.068;2022-07-23T03:21:00;16.00;99.90
11617;DHT22;5864;52.998;9.068;2022-07-23T03:23:29;15.90;99.90
11617;DHT22;5864;52.998;9.068;2022-07-23T03:25:57;15.90;99.90
11617;DHT22;5864;52.998;9.068;2022-07-23T03:28:24;15.90;99.90
11617;DHT22;5864;52.998;9.068;2022-07-23T03:30:52;15.90;99.90
11617;DHT22;5864;52.998;9.068;2022-07-23T03:33:20;15.90;99.90
11617;DHT22;5864;52.998;9.068;2022-07-23T03:35:48;15.90;99.90
11617;DHT22;5864;52.998;9.068;2022-07-23T03:38:16;16.00;99.90
11617;DHT22;5864;52.998;9.068;2022-07-23T03:40:44;16.00;99.90
11617;DHT22;5864;52.998;9.068;2022-07-23T03:43:12;16.00;99.90
11617;DHT22;5864;52.998;9.068;2022-07-23T03:45:39;15.90;99.90
11617;DHT22;5864;52.998;9.068;2022-07-23T03:48:07;15.90;99.90
11617;DHT22;5864;52.998;9.068;2022-07-23T03:50:34;15.90;99.90
11617;DHT22;5864;52.998;9.068;2022-07-23T03:53:03;15.80;99.90
11617;DHT22;5864;52.998;9.068;2022-07-23T03:55:30;15.80;99.90
11617;DHT22;5864;52.998;9.068;2022-07-23T03:58:00;15.80;99.90
11617;DHT22;5864;52.998;9.068;2022-07-23T04:00:27;15.80;99.90
11617;DHT22;5864;52.998;9.068;2022-07-23T04:02:55;15.80;99.90
11617;DHT22;5864;52.998;9.068;2022-07-23T04:05:22;15.80;99.90
11617;DHT22;5864;52.998;9.068;2022-07-23T04:07:50;15.70;99.90
11617;DHT22;5864;52.998;9.068;2022-07-23T04:10:17;15.70;99.90
11617;DHT22;5864;52.998;9.068;2022-07-23T04:12:45;15.70;99.90
11617;DHT22;5864;52.998;9.068;2022-07-23T04:15:14;15.70;99.90
11617;DHT22;5864;52.998;9.068;2022-07-23T04:17:41;15.70;99.90
11617;DHT22;5864;52.998;9.068;2022-07-23T04:20:11;15.60;99.90
11617;DHT22;5864;52.998;9.068;2022-07-23T04:22:38;15.60;99.90
11617;DHT22;5864;52.998;9.068;2022-07-23T04:25:06;15.60;99.90
11617;DHT22;5864;52.998;9.068;2022-07-23T04:27:34;15.60;99.90
11617;DHT22;5864;52.998;9.068;2022-07-23T04:30:02;15.60;99.90
11617;DHT22;5864;52.998;9.068;2022-07-23T04:32:30;15.60;99.90
11617;DHT22;5864;52.998;9.068;2022-07-23T04:34:58;15.60;99.90
11617;DHT22;5864;52.998;9.068;2022-07-23T04:37:25;15.60;99.90
11617;DHT22;5864;52.998;9.068;2022-07-23T04:39:53;15.70;99.90
11617;DHT22;5864;52.998;9.068;2022-07-23T04:42:21;15.70;99.90
11617;DHT22;5864;52.998;9.068;2022-07-23T04:44:48;15.70;99.90
11617;DHT22;5864;52.998;9.068;2022-07-23T04:47:15;15.60;99.90
11617;DHT22;5864;52.998;9.068;2022-07-23T04:49:44;15.70;99.90
11617;DHT22;5864;52.998;9.068;2022-07-23T04:52:12;15.70;99.90
11617;DHT22;5864;52.998;9.068;2022-07-23T04:54:41;15.70;99.90
11617;DHT22;5864;52.998;9.068;2022-07-23T04:57:08;15.70;99.90
11617;DHT22;5864;52.998;9.068;2022-07-23T04:59:36;15.70;99.90
11617;DHT22;5864;52.998;9.068;2022-07-23T05:02:03;15.70;99.90
11617;DHT22;5864;52.998;9.068;2022-07-23T05:04:31;15.60;99.90
11617;DHT22;5864;52.998;9.068;2022-07-23T05:07:00;15.70;99.90
11617;DHT22;5864;52.998;9.068;2022-07-23T05:09:27;15.70;99.90
11617;DHT22;5864;52.998;9.068;2022-07-23T05:11:55;15.90;99.90
11617;DHT22;5864;52.998;9.068;2022-07-23T05:14:23;15.90;99.90
11617;DHT22;5864;52.998;9.068;2022-07-23T05:16:50;16.00;99.90
11617;DHT22;5864;52.998;9.068;2022-07-23T05:19:18;16.10;99.90
11617;DHT22;5864;52.998;9.068;2022-07-23T05:21:45;16.10;99.90
11617;DHT22;5864;52.998;9.068;2022-07-23T05:24:15;16.20;99.90
11617;DHT22;5864;52.998;9.068;2022-07-23T05:26:43;16.20;99.90
11617;DHT22;5864;52.998;9.068;2022-07-23T05:29:10;16.40;99.90
11617;DHT22;5864;52.998;9.068;2022-07-23T05:31:38;16.40;99.90
11617;DHT22;5864;52.998;9.068;2022-07-23T05:34:05;16.50;99.90
11617;DHT22;5864;52.998;9.068;2022-07-23T05:36:33;16.70;99.90
11617;DHT22;5864;52.998;9.068;2022-07-23T05:39:00;16.90;99.90
11617;DHT22;5864;52.998;9.068;2022-07-23T05:41:29;17.10;99.90
11617;DHT22;5864;52.998;9.068;2022-07-23T05:43:56;17.30;99.90
11617;DHT22;5864;52.998;9.068;2022-07-23T05:46:24;17.50;99.90
11617;DHT22;5864;52.998;9.068;2022-07-23T05:48:51;17.80;99.90
11617;DHT22;5864;52.998;9.068;2022-07-23T05:51:20;18.00;99.90
11617;DHT22;5864;52.998;9.068;2022-07-23T05:53:48;18.10;99.90
11617;DHT22;5864;52.998;9.068;2022-07-23T05:56:15;18.30;99.90
11617;DHT22;5864;52.998;9.068;2022-07-23T05:58:44;18.40;99.90
11617;DHT22;5864;52.998;9.068;2022-07-23T06:01:12;18.50;99.90
11617;DHT22;5864;52.998;9.068;2022-07-23T06:03:39;18.70;99.90
11617;DHT22;5864;52.998;9.068;2022-07-23T06:06:07;18.80;99.90
11617;DHT22;5864;52.998;9.068;2022-07-23T06:08:34;19.00;99.90
11617;DHT22;5864;52.998;9.068;2022-07-23T06:11:02;19.00;99.90
11617;DHT22;5864;52.998;9.068;2022-07-23T06:13:30;18.90;99.90
11617;DHT22;5864;52.998;9.068;2022-07-23T06:15:59;19.00;99.90
11617;DHT22;5864;52.998;9.068;2022-07-23T06:18:26;19.20;99.90
11617;DHT22;5864;52.998;9.068;2022-07-23T06:20:53;19.40;99.90
11617;DHT22;5864;52.998;9.068;2022-07-23T06:23:21;19.50;99.90
11617;DHT22;5864;52.998;9.068;2022-07-23T06:25:49;19.90;99.90
11617;DHT22;5864;52.998;9.068;2022-07-23T06:28:16;20.00;99.90
11617;DHT22;5864;52.998;9.068;2022-07-23T06:30:44;20.20;99.90
11617;DHT22;5864;52.998;9.068;2022-07-23T06:33:12;20.30;99.90
11617;DHT22;5864;52.998;9.068;2022-07-23T06:35:40;20.30;99.90
11617;DHT22;5864;52.998;9.068;2022-07-23T06:38:07;20.40;99.90
11617;DHT22;5864;52.998;9.068;2022-07-23T06:40:35;20.60;99.90
11617;DHT22;5864;52.998;9.068;2022-07-23T06:43:02;20.70;99.90
11617;DHT22;5864;52.998;9.068;2022-07-23T06:45:30;21.00;99.90
11617;DHT22;5864;52.998;9.068;2022-07-23T06:47:57;20.90;99.90
11617;DHT22;5864;52.998;9.068;2022-07-23T06:50:27;20.60;99.90
11617;DHT22;5864;52.998;9.068;2022-07-23T06:52:54;20.60;99.90
11617;DHT22;5864;52.998;9.068;2022-07-23T06:55:22;20.80;99.90
11617;DHT22;5864;52.998;9.068;2022-07-23T06:57:49;20.90;99.90
11617;DHT22;5864;52.998;9.068;2022-07-23T07:00:17;21.10;99.90
11617;DHT22;5864;52.998;9.068;2022-07-23T07:02:44;21.20;99.90
11617;DHT22;5864;52.998;9.068;2022-07-23T07:05:12;21.30;99.90
11617;DHT22;5864;52.998;9.068;2022-07-23T07:07:40;20.90;99.90
11617;DHT22;5864;52.998;9.068;2022-07-23T07:10:08;20.80;99.90
11617;DHT22;5864;52.998;9.068;2022-07-23T07:12:36;21.20;99.90
11617;DHT22;5864;52.998;9.068;2022-07-23T07:15:04;21.70;99.90
11617;DHT22;5864;52.998;9.068;2022-07-23T07:17:32;21.60;99.90
11617;DHT22;5864;52.998;9.068;2022-07-23T07:19:59;21.90;99.90
11617;DHT22;5864;52.998;9.068;2022-07-23T07:22:26;22.10;99.90
11617;DHT22;5864;52.998;9.068;2022-07-23T07:24:59;22.50;99.90
11617;DHT22;5864;52.998;9.068;2022-07-23T07:27:26;22.70;99.90
11617;DHT22;5864;52.998;9.068;2022-07-23T07:29:53;22.90;99.90
11617;DHT22;5864;52.998;9.068;2022-07-23T07:32:21;22.90;99.90
11617;DHT22;5864;52.998;9.068;2022-07-23T07:34:48;23.00;99.90
11617;DHT22;5864;52.998;9.068;2022-07-23T07:37:16;22.70;99.10
11617;DHT22;5864;52.998;9.068;2022-07-23T07:39:43;22.20;99.10
11617;DHT22;5864;52.998;9.068;2022-07-23T07:42:12;21.70;99.70
11617;DHT22;5864;52.998;9.068;2022-07-23T07:44:39;21.50;99.90
11617;DHT22;5864;52.998;9.068;2022-07-23T07:47:07;21.80;99.90
11617;DHT22;5864;52.998;9.068;2022-07-23T07:49:34;21.80;99.90
11617;DHT22;5864;52.998;9.068;2022-07-23T07:52:02;21.90;99.90
11617;DHT22;5864;52.998;9.068;2022-07-23T07:54:30;21.80;99.50
11617;DHT22;5864;52.998;9.068;2022-07-23T07:56:58;21.70;99.90
11617;DHT22;5864;52.998;9.068;2022-07-23T07:59:27;22.30;99.90
11617;DHT22;5864;52.998;9.068;2022-07-23T08:01:55;22.90;98.20
11617;DHT22;5864;52.998;9.068;2022-07-23T08:04:22;23.50;98.40
11617;DHT22;5864;52.998;9.068;2022-07-23T08:06:50;24.10;97.50
11617;DHT22;5864;52.998;9.068;2022-07-23T08:09:17;24.50;96.40
11617;DHT22;5864;52.998;9.068;2022-07-23T08:11:44;24.60;96.00
11617;DHT22;5864;52.998;9.068;2022-07-23T08:14:12;24.40;96.10
11617;DHT22;5864;52.998;9.068;2022-07-23T08:16:41;23.90;95.60
11617;DHT22;5864;52.998;9.068;2022-07-23T08:19:08;23.80;97.00
11617;DHT22;5864;52.998;9.068;2022-07-23T08:21:36;24.10;97.10
11617;DHT22;5864;52.998;9.068;2022-07-23T08:24:03;24.50;96.50
11617;DHT22;5864;52.998;9.068;2022-07-23T08:26:31;24.70;95.20
11617;DHT22;5864;52.998;9.068;2022-07-23T08:28:58;24.80;95.10
11617;DHT22;5864;52.998;9.068;2022-07-23T08:31:26;24.70;94.90
11617;DHT22;5864;52.998;9.068;2022-07-23T08:33:55;24.20;95.40
11617;DHT22;5864;52.998;9.068;2022-07-23T08:36:23;24.10;95.70
11617;DHT22;5864;52.998;9.068;2022-07-23T08:38:53;23.40;95.70
11617;DHT22;5864;52.998;9.068;2022-07-23T08:41:21;23.30;97.50
11617;DHT22;5864;52.998;9.068;2022-07-23T08:43:48;24.00;96.50
11617;DHT22;5864;52.998;9.068;2022-07-23T08:46:17;24.50;96.50
11617;DHT22;5864;52.998;9.068;2022-07-23T08:48:48;24.80;95.10
11617;DHT22;5864;52.998;9.068;2022-07-23T08:51:17;24.70;95.00
11617;DHT22;5864;52.998;9.068;2022-07-23T08:53:45;24.60;95.10
11617;DHT22;5864;52.998;9.068;2022-07-23T08:56:13;24.30;94.70
11617;DHT22;5864;52.998;9.068;2022-07-23T08:58:41;24.00;95.30
11617;DHT22;5864;52.998;9.068;2022-07-23T09:01:09;23.80;95.40
11617;DHT22;5864;52.998;9.068;2022-07-23T09:03:37;23.90;95.90
11617;DHT22;5864;52.998;9.068;2022-07-23T09:06:06;23.90;95.40
11617;DHT22;5864;52.998;9.068;2022-07-23T09:08:39;23.50;95.80
11617;DHT22;5864;52.998;9.068;2022-07-23T09:11:08;22.90;96.30
11617;DHT22;5864;52.998;9.068;2022-07-23T09:13:37;23.10;97.10
11617;DHT22;5864;52.998;9.068;2022-07-23T09:16:07;22.70;96.70
11617;DHT22;5864;52.998;9.068;2022-07-23T09:18:38;22.50;97.50
11617;DHT22;5864;52.998;9.068;2022-07-23T09:21:10;22.10;97.90
11617;DHT22;5864;52.998;9.068;2022-07-23T09:23:42;22.00;98.80
11617;DHT22;5864;52.998;9.068;2022-07-23T09:26:27;22.10;99.10
11617;DHT22;5864;52.998;9.068;2022-07-23T09:29:00;22.40;98.90
11617;DHT22;5864;52.998;9.068;2022-07-23T09:31:33;22.10;98.60
11617;DHT22;5864;52.998;9.068;2022-07-23T09:34:09;22.00;99.20
11617;DHT22;5864;52.998;9.068;2022-07-23T09:36:37;22.10;99.40
11617;DHT22;5864;52.998;9.068;2022-07-23T09:39:07;22.20;99.60
11617;DHT22;5864;52.998;9.068;2022-07-23T09:41:37;22.30;98.50
11617;DHT22;5864;52.998;9.068;2022-07-23T09:44:10;22.30;98.90
11617;DHT22;5864;52.998;9.068;2022-07-23T09:46:38;22.20;98.80
11617;DHT22;5864;52.998;9.068;2022-07-23T09:49:12;22.30;99.70
11617;DHT22;5864;52.998;9.068;2022-07-23T09:51:45;22.60;98.00
11617;DHT22;5864;52.998;9.068;2022-07-23T09:54:33;22.80;97.30
11617;DHT22;5864;52.998;9.068;2022-07-23T09:57:04;22.70;96.90
11617;DHT22;5864;52.998;9.068;2022-07-23T09:59:36;22.70;96.60
11617;DHT22;5864;52.998;9.068;2022-07-23T10:02:05;22.80;97.90
11617;DHT22;5864;52.998;9.068;2022-07-23T10:04:34;23.80;97.00
11617;DHT22;5864;52.998;9.068;2022-07-23T10:07:04;24.10;95.70
11617;DHT22;5864;52.998;9.068;2022-07-23T10:09:36;24.70;94.40
11617;DHT22;5864;52.998;9.068;2022-07-23T10:12:12;24.90;94.20
11617;DHT22;5864;52.998;9.068;2022-07-23T10:14:57;25.40;94.10
11617;DHT22;5864;52.998;9.068;2022-07-23T10:17:25;25.90;92.70
11617;DHT22;5864;52.998;9.068;2022-07-23T10:19:52;25.90;91.60
11617;DHT22;5864;52.998;9.068;2022-07-23T10:22:22;25.60;92.60
11617;DHT22;5864;52.998;9.068;2022-07-23T10:24:56;26.20;91.90
11617;DHT22;5864;52.998;9.068;2022-07-23T10:27:43;26.60;91.50
11617;DHT22;5864;52.998;9.068;2022-07-23T10:30:19;27.30;91.00
11617;DHT22;5864;52.998;9.068;2022-07-23T10:32:53;27.90;87.30
11617;DHT22;5864;52.998;9.068;2022-07-23T10:35:26;28.30;85.60
11617;DHT22;5864;52.998;9.068;2022-07-23T10:38:02;28.20;85.40
11617;DHT22;5864;52.998;9.068;2022-07-23T10:40:31;28.30;80.40
11617;DHT22;5864;52.998;9.068;2022-07-23T10:43:00;27.90;80.30
11617;DHT22;5864;52.998;9.068;2022-07-23T10:45:32;27.30;79.60
11617;DHT22;5864;52.998;9.068;2022-07-23T10:48:21;26.60;83.60
11617;DHT22;5864;52.998;9.068;2022-07-23T10:51:09;26.10;85.50
11617;DHT22;5864;52.998;9.068;2022-07-23T10:53:54;26.40;85.00
11617;DHT22;5864;52.998;9.068;2022-07-23T10:59:24;26.40;82.70
11617;DHT22;5864;52.998;9.068;2022-07-23T11:01:52;25.90;84.10
11617;DHT22;5864;52.998;9.068;2022-07-23T11:04:19;25.50;84.90
11617;DHT22;5864;52.998;9.068;2022-07-23T11:07:07;25.50;85.90
11617;DHT22;5864;52.998;9.068;2022-07-23T11:09:41;25.70;86.20
11617;DHT22;5864;52.998;9.068;2022-07-23T11:12:31;26.00;85.30
11617;DHT22;5864;52.998;9.068;2022-07-23T11:15:03;26.60;86.80
11617;DHT22;5864;52.998;9.068;2022-07-23T11:17:31;27.20;87.60
11617;DHT22;5864;52.998;9.068;2022-07-23T11:20:20;27.40;82.50
11617;DHT22;5864;52.998;9.068;2022-07-23T11:22:54;27.30;80.80
11617;DHT22;5864;52.998;9.068;2022-07-23T11:25:35;27.40;83.90
11617;DHT22;5864;52.998;9.068;2022-07-23T11:28:15;27.80;81.50
11617;DHT22;5864;52.998;9.068;2022-07-23T11:30:45;27.60;79.30
11617;DHT22;5864;52.998;9.068;2022-07-23T11:33:17;27.00;81.70
11617;DHT22;5864;52.998;9.068;2022-07-23T11:35:47;26.70;80.20
11617;DHT22;5864;52.998;9.068;2022-07-23T11:38:16;26.10;78.60
11617;DHT22;5864;52.998;9.068;2022-07-23T11:40:46;26.30;81.20
11617;DHT22;5864;52.998;9.068;2022-07-23T11:43:15;26.30;78.40
11617;DHT22;5864;52.998;9.068;2022-07-23T11:45:45;26.00;79.70
11617;DHT22;5864;52.998;9.068;2022-07-23T11:48:18;26.10;81.10
11617;DHT22;5864;52.998;9.068;2022-07-23T11:50:46;26.70;79.40
11617;DHT22;5864;52.998;9.068;2022-07-23T11:53:13;27.70;79.50
11617;DHT22;5864;52.998;9.068;2022-07-23T11:55:41;28.20;75.60
11617;DHT22;5864;52.998;9.068;2022-07-23T11:58:08;28.40;75.90
11617;DHT22;5864;52.998;9.068;2022-07-23T12:00:40;29.00;76.10
11617;DHT22;5864;52.998;9.068;2022-07-23T12:03:09;29.30;74.60
11617;DHT22;5864;52.998;9.068;2022-07-23T12:05:38;29.40;72.90
11617;DHT22;5864;52.998;9.068;2022-07-23T12:08:06;28.60;74.50
11617;DHT22;5864;52.998;9.068;2022-07-23T12:10:35;28.50;72.30
11617;DHT22;5864;52.998;9.068;2022-07-23T12:13:05;27.60;71.80
11617;DHT22;5864;52.998;9.068;2022-07-23T12:15:35;26.80;75.20
11617;DHT22;5864;52.998;9.068;2022-07-23T12:18:06;26.80;79.10
11617;DHT22;5864;52.998;9.068;2022-07-23T12:20:36;26.80;75.70
11617;DHT22;5864;52.998;9.068;2022-07-23T12:23:07;26.80;76.90
11617;DHT22;5864;52.998;9.068;2022-07-23T12:25:36;27.00;74.10
11617;DHT22;5864;52.998;9.068;2022-07-23T12:28:05;26.70;75.30
11617;DHT22;5864;52.998;9.068;2022-07-23T12:30:37;26.40;78.10
11617;DHT22;5864;52.998;9.068;2022-07-23T12:33:06;27.10;78.40
11617;DHT22;5864;52.998;9.068;2022-07-23T12:35:36;27.60;78.50
11617;DHT22;5864;52.998;9.068;2022-07-23T12:38:07;28.00;75.40
11617;DHT22;5864;52.998;9.068;2022-07-23T12:40:37;28.40;74.20
11617;DHT22;5864;52.998;9.068;2022-07-23T12:43:07;28.50;74.40
11617;DHT22;5864;52.998;9.068;2022-07-23T12:45:46;28.10;73.00
11617;DHT22;5864;52.998;9.068;2022-07-23T12:48:20;28.30;74.50
11617;DHT22;5864;52.998;9.068;2022-07-23T12:50:52;28.80;71.10
11617;DHT22;5864;52.998;9.068;2022-07-23T12:53:22;29.20;71.00
11617;DHT22;5864;52.998;9.068;2022-07-23T12:55:53;28.90;73.20
11617;DHT22;5864;52.998;9.068;2022-07-23T12:58:23;27.90;75.10
11617;DHT22;5864;52.998;9.068;2022-07-23T13:01:03;27.50;77.70
11617;DHT22;5864;52.998;9.068;2022-07-23T13:03:37;27.50;79.50
11617;DHT22;5864;52.998;9.068;2022-07-23T13:06:09;27.00;77.60
11617;DHT22;5864;52.998;9.068;2022-07-23T13:08:37;26.50;78.30
11617;DHT22;5864;52.998;9.068;2022-07-23T13:11:07;26.90;79.30
11617;DHT22;5864;52.998;9.068;2022-07-23T13:13:35;27.10;79.60
11617;DHT22;5864;52.998;9.068;2022-07-23T13:16:03;27.60;78.50
11617;DHT22;5864;52.998;9.068;2022-07-23T13:18:31;27.80;78.00
11617;DHT22;5864;52.998;9.068;2022-07-23T13:20:59;27.50;75.40
11617;DHT22;5864;52.998;9.068;2022-07-23T13:23:28;27.40;74.30
11617;DHT22;5864;52.998;9.068;2022-07-23T13:25:56;27.70;75.10
11617;DHT22;5864;52.998;9.068;2022-07-23T13:28:23;27.80;72.80
11617;DHT22;5864;52.998;9.068;2022-07-23T13:30:52;27.90;73.40
11617;DHT22;5864;52.998;9.068;2022-07-23T13:33:21;27.80;73.10
11617;DHT22;5864;52.998;9.068;2022-07-23T13:35:49;27.00;73.30
11617;DHT22;5864;52.998;9.068;2022-07-23T13:38:17;27.10;74.70
11617;DHT22;5864;52.998;9.068;2022-07-23T13:40:48;27.40;76.10
11617;DHT22;5864;52.998;9.068;2022-07-23T13:43:18;27.50;72.70
11617;DHT22;5864;52.998;9.068;2022-07-23T13:45:47;27.30;69.90
11617;DHT22;5864;52.998;9.068;2022-07-23T13:48:15;26.60;70.80
11617;DHT22;5864;52.998;9.068;2022-07-23T13:50:43;26.90;72.80
11617;DHT22;5864;52.998;9.068;2022-07-23T13:53:12;27.50;72.50
11617;DHT22;5864;52.998;9.068;2022-07-23T13:55:41;27.90;71.40
11617;DHT22;5864;52.998;9.068;2022-07-23T13:58:11;27.90;67.30
11617;DHT22;5864;52.998;9.068;2022-07-23T14:00:42;27.90;67.90
11617;DHT22;5864;52.998;9.068;2022-07-23T14:03:12;28.00;68.40
11617;DHT22;5864;52.998;9.068;2022-07-23T14:05:40;27.80;70.60
11617;DHT22;5864;52.998;9.068;2022-07-23T14:08:08;27.90;66.90
11617;DHT22;5864;52.998;9.068;2022-07-23T14:10:36;28.20;69.00
11617;DHT22;5864;52.998;9.068;2022-07-23T14:13:03;28.10;65.10
11617;DHT22;5864;52.998;9.068;2022-07-23T14:15:32;27.80;65.80
11617;DHT22;5864;52.998;9.068;2022-07-23T14:18:00;27.30;66.80
11617;DHT22;5864;52.998;9.068;2022-07-23T14:20:27;27.00;68.20
11617;DHT22;5864;52.998;9.068;2022-07-23T14:22:55;26.70;69.80
11617;DHT22;5864;52.998;9.068;2022-07-23T14:25:26;26.50;70.60
11617;DHT22;5864;52.998;9.068;2022-07-23T14:27:54;26.90;69.60
11617;DHT22;5864;52.998;9.068;2022-07-23T14:30:21;27.30;68.90
11617;DHT22;5864;52.998;9.068;2022-07-23T14:32:51;27.10;66.70
11617;DHT22;5864;52.998;9.068;2022-07-23T14:35:19;27.40;69.20
11617;DHT22;5864;52.998;9.068;2022-07-23T14:37:46;27.60;67.50
11617;DHT22;5864;52.998;9.068;2022-07-23T14:40:14;27.70;67.30
11617;DHT22;5864;52.998;9.068;2022-07-23T14:42:42;27.80;66.80
11617;DHT22;5864;52.998;9.068;2022-07-23T14:45:10;27.30;66.80
11617;DHT22;5864;52.998;9.068;2022-07-23T14:47:38;27.20;67.10
11617;DHT22;5864;52.998;9.068;2022-07-23T14:50:07;27.00;68.20
11617;DHT22;5864;52.998;9.068;2022-07-23T14:52:35;27.00;68.20
11617;DHT22;5864;52.998;9.068;2022-07-23T14:55:03;27.00;68.30
11617;DHT22;5864;52.998;9.068;2022-07-23T14:57:31;26.80;67.30
11617;DHT22;5864;52.998;9.068;2022-07-23T15:00:02;26.70;70.90
11617;DHT22;5864;52.998;9.068;2022-07-23T15:02:30;26.50;73.70
11617;DHT22;5864;52.998;9.068;2022-07-23T15:04:58;26.50;75.50
11617;DHT22;5864;52.998;9.068;2022-07-23T15:07:29;26.60;73.90
11617;DHT22;5864;52.998;9.068;2022-07-23T15:09:57;26.70;74.10
11617;DHT22;5864;52.998;9.068;2022-07-23T15:12:25;26.40;73.60
11617;DHT22;5864;52.998;9.068;2022-07-23T15:14:52;26.40;74.90
11617;DHT22;5864;52.998;9.068;2022-07-23T15:17:20;26.70;74.20
11617;DHT22;5864;52.998;9.068;2022-07-23T15:19:47;26.50;73.10
11617;DHT22;5864;52.998;9.068;2022-07-23T15:22:15;26.60;71.40
11617;DHT22;5864;52.998;9.068;2022-07-23T15:24:44;26.60;71.50
11617;DHT22;5864;52.998;9.068;2022-07-23T15:27:11;26.40;70.60
11617;DHT22;5864;52.998;9.068;2022-07-23T15:29:38;26.20;71.70
11617;DHT22;5864;52.998;9.068;2022-07-23T15:32:06;26.50;70.70
11617;DHT22;5864;52.998;9.068;2022-07-23T15:34:34;25.80;74.70
11617;DHT22;5864;52.998;9.068;2022-07-23T15:37:02;25.60;75.80
11617;DHT22;5864;52.998;9.068;2022-07-23T15:39:31;25.60;77.00
11617;DHT22;5864;52.998;9.068;2022-07-23T15:42:00;25.50;78.50
11617;DHT22;5864;52.998;9.068;2022-07-23T15:44:27;25.40;78.50
11617;DHT22;5864;52.998;9.068;2022-07-23T15:46:55;25.50;78.50
11617;DHT22;5864;52.998;9.068;2022-07-23T15:49:23;25.50;78.20
11617;DHT22;5864;52.998;9.068;2022-07-23T15:51:50;25.70;77.30
11617;DHT22;5864;52.998;9.068;2022-07-23T15:54:18;25.60;76.80
11617;DHT22;5864;52.998;9.068;2022-07-23T15:56:45;25.60;78.50
11617;DHT22;5864;52.998;9.068;2022-07-23T15:59:15;25.90;78.50